Terminal Aerodrome Forecast
Issued by NWS Springfield, MO

Home | Current Version | Previous Version | Text Only | Print | Product List | Glossary On
Versions: 1 2 3 4 5 6 7 8 9 10 11 12 13 14 15 16 17 18
000
FTUS43 KSGF 190800 AAA
TAFSGF
TAF AMD
KSGF 190845Z 1909/2006 13005KT 4SM BR BKN030
      TEMPO 1911/1913 OVC015
     FM191400 14009KT P6SM SCT007 BKN030
     FM191600 14009KT P6SM SCT030 SCT250=

USA.gov is the U.S. government's official web portal to all federal, state and local government web resources and services.